Airfield :
LOGIN :

Register | Disclaimer

   EN    FR    IT 

 










Legend :    VFR   Marginal VFR   IFR   Intensive IFR   Very Intensive IFR
Visi :
Ceiling :
>= 8 km
>= 3000ft
5 to 8 km
1000 to 3000 ft
1500m to 5 km
500 to 1000 ft
800 to 1500m
200 to 500 ft
< 800m
< 200 ft
Symbols :   Thunderstorms  Fog  Heavy snow  Heavy precipitations  Wind > 20 kt
SIGMETs :     Misc.  Thunderstorms  Icing  Turbulence  Mountain Waves  Volcanic Ashes






- Airport Elevation : 1197 ft
- IATA code : SPM


ETAD - Spangdahlem Ab

CURRENT METAR :
  • 100956Z AUTO 21007KT 9999 CLR 03/01 A3032 RMK AO2 DZB13E16 SLP274 P0000 T00280009 $

EXPIRED METARs :
  • 100916Z AUTO 22004KT 9999 CLR 02/01 A3032 RMK AO2 DZB13E16 SLP274 $
  • 100913Z AUTO 23003KT 9999 -DZ FEW041 02/01 A3032 RMK AO2 DZB13 SLP274 $
  • 100856Z AUTO 25005KT 9999 FEW006 SCT042 02/00 A3032 RMK AO2 DZB28E37 SLP274 P0000 60000 T00150003 52014 $
  • 100838Z 27007KT 9999 FEW007 SCT042 01/00 A3032 RMK AO2A SLP275 $
  • 100833Z 25005KT 9999 SCT044 02/00 A3032 RMK DZB28 SLP274 $
  • 100811Z AUTO 28008KT 9999 BKN046 02/00 A3031 RMK AO2 SLP270 $
  • 100756Z 28006KT 9999 SCT044 01/00 A3030 RMK SLP267 T00051002 $
  • 100741Z AUTO 28004KT 9999 BKN043 00/00 A3030 RMK AO2 SLP268 $

TAF AMD TAF ETAD
Valid from the 10 at 07:00 until the 11 at 11:00 UTC


100706Z 1007/1111 23006KT 9999 SCT045 QNH3025INS
BECMG 1009/1010 22009KT 9999 SCT007 BKN025 QNH3028INS
BECMG 1011/1012 21010G15KT 9999 BKN010 610104 QNH3012INS
TEMPO 1012/1015 BKN007
BECMG 1019/1020 21012G18KT 9999 SCT015 BKN180 QNH2978INS
BECMG 1106/1107 20010G15KT 8000 -RA SCT010 BKN015 QNH2970INS TX03/1012Z TNM02/1105Z



MET'MAP, your aeronautical weather chart ! - Copyright ORBIFLY December 2007 - Disclaimer

ORBIFLY MET'MAP TEAM :

Programming & Development : Alexandra Zaïnal
Concept & original design : Baudouin d'Aumeries
Assistance for programming : Marc-Olivier Méhu
Technical & hardware support : Manuel Goepfert

Contact : metmap@orbifly.com




SOURCES & CREDITS :

   NOAA